Time;durP1;ratioP1;P1;durP2;ratioP2;P2;SDS_P1;SDS_P2;PMS_P1;PMS_P2;Temp;Humidity;BMP_temperature;BMP_pressure;BME280_temperature;BME280_humidity;BME280_pressure;Samples;Min_cycle;Max_cycle;Signal;HPM_P1;HPM_P2
2022/02/01 00:01:16;;;;;;;0.52;0.40;;;3.20;85.10;;;;;;4974377;28;20027;-68
2022/02/01 00:03:45;;;;;;;0.80;0.52;;;3.20;85.50;;;;;;4975144;28;20139;-66
2022/02/01 00:06:21;;;;;;;0.50;0.50;;;3.20;85.60;;;;;;4973194;28;20138;-69
2022/02/01 00:09:35;;;;;;;0.73;0.47;;;3.20;85.90;;;;;;4975924;28;20077;-68
2022/02/01 00:40:24;;;;;;;1.80;1.10;;;3.20;86.50;;;;;;4981080;28;20039;-68
2022/02/01 00:42:50;;;;;;;5.25;1.88;;;3.20;87.50;;;;;;4979670;28;20037;-68
2022/02/01 00:45:16;;;;;;;4.40;1.50;;;3.20;86.60;;;;;;4980118;28;20030;-68
2022/02/01 00:47:43;;;;;;;2.63;1.27;;;3.20;86.60;;;;;;4980624;28;20037;-67
2022/02/01 00:50:12;;;;;;;8.00;2.67;;;3.20;86.70;;;;;;4982599;28;20109;-68
2022/02/01 00:52:38;;;;;;;5.90;2.30;;;3.30;86.80;;;;;;4981555;28;20041;-68
2022/02/01 00:55:05;;;;;;;2.47;1.30;;;3.30;86.80;;;;;;4981029;28;20096;-69
2022/02/01 00:57:30;;;;;;;5.82;2.60;;;3.30;87.00;;;;;;4978957;28;20037;-70
2022/02/01 00:59:56;;;;;;;5.57;2.55;;;3.30;87.00;;;;;;4979047;28;20509;-69
2022/02/01 01:02:21;;;;;;;3.95;2.22;;;3.30;86.70;;;;;;4979532;28;20042;-67
2022/02/01 01:04:47;;;;;;;4.03;1.85;;;3.40;86.60;;;;;;4981835;28;20497;-67
2022/02/01 01:07:13;;;;;;;6.75;2.45;;;3.40;86.50;;;;;;4980772;28;20133;-68
2022/02/01 01:09:39;;;;;;;4.75;2.22;;;3.40;86.30;;;;;;4980456;28;20045;-67
2022/02/01 01:12:05;;;;;;;5.15;2.42;;;3.40;86.00;;;;;;4980902;28;20129;-68
2022/02/01 01:15:03;;;;;;;6.15;2.20;;;3.50;85.80;;;;;;4978756;28;20049;-68
2022/02/01 01:45:10;;;;;;;6.78;2.70;;;3.50;85.60;;;;;;4975726;28;20270;-66
2022/02/01 01:55:38;;;;;;;9.35;3.08;;;3.30;85.90;;;;;;4976216;28;20034;-67
2022/02/01 01:58:04;;;;;;;9.30;3.13;;;3.40;85.90;;;;;;4975769;28;20038;-69
2022/02/01 02:02:59;;;;;;;11.13;3.38;;;3.30;85.90;;;;;;4979032;28;20133;-67
2022/02/01 02:05:24;;;;;;;9.20;2.95;;;3.40;85.90;;;;;;4976322;28;20773;-67
2022/02/01 02:07:51;;;;;;;6.50;2.65;;;3.40;85.70;;;;;;4976993;28;20039;-67
2022/02/01 02:10:18;;;;;;;6.18;3.00;;;3.30;85.50;;;;;;4977463;28;20125;-67
2022/02/01 02:14:15;;;;;;;4.13;1.77;;;3.30;85.20;;;;;;4976588;28;20041;-68
2022/02/01 02:15:50;;;;;;;6.88;2.70;;;3.40;85.10;;;;;;4976140;28;20031;-67
2022/02/01 02:18:18;;;;;;;8.25;2.50;;;3.40;84.80;;;;;;4976345;28;20022;-66
2022/02/01 02:20:48;;;;;;;6.45;2.53;;;3.50;84.80;;;;;;4975256;28;20555;-68
2022/02/01 02:23:14;;;;;;;7.28;2.80;;;3.50;84.90;;;;;;4977384;28;20039;-67
2022/02/01 02:25:40;;;;;;;4.32;1.80;;;3.50;84.80;;;;;;4975387;28;20035;-67
2022/02/01 02:28:09;;;;;;;3.42;1.85;;;3.50;84.90;;;;;;4976108;28;20044;-67
2022/02/01 02:30:35;;;;;;;1.17;0.75;;;3.40;84.90;;;;;;4975384;28;20377;-67
2022/02/01 02:33:12;;;;;;;1.88;0.93;;;3.40;85.10;;;;;;4977077;28;20039;-68
2022/02/01 02:35:57;;;;;;;1.25;0.60;;;3.40;85.40;;;;;;4977366;28;20577;-67
2022/02/01 02:41:10;;;;;;;1.33;0.57;;;3.40;85.50;;;;;;4977804;28;20039;-68
2022/02/01 02:46:24;;;;;;;0.70;0.60;;;3.40;85.60;;;;;;4975706;28;20101;-67
2022/02/01 02:48:51;;;;;;;0.85;0.73;;;3.40;85.80;;;;;;4977467;28;20399;-67
2022/02/01 02:51:16;;;;;;;0.93;0.80;;;3.40;85.70;;;;;;4977800;28;20034;-66
2022/02/01 02:53:42;;;;;;;2.17;0.80;;;3.30;85.80;;;;;;4976422;28;20053;-67
2022/02/01 02:56:08;;;;;;;1.00;0.80;;;3.30;85.80;;;;;;4975268;28;20031;-68
2022/02/01 02:58:34;;;;;;;1.23;0.85;;;3.30;85.80;;;;;;4975456;28;20023;-68
2022/02/01 03:00:59;;;;;;;1.70;0.90;;;3.30;86.00;;;;;;4975758;28;20038;-66
2022/02/01 03:03:25;;;;;;;1.30;1.00;;;3.30;86.10;;;;;;4977040;28;20442;-68
2022/02/01 03:05:51;;;;;;;1.70;1.10;;;3.30;86.10;;;;;;4976521;28;20042;-68
2022/02/01 03:08:16;;;;;;;4.22;1.00;;;3.30;86.10;;;;;;4974452;28;20034;-67
2022/02/01 03:10:44;;;;;;;1.48;0.88;;;3.30;86.00;;;;;;4976302;28;20038;-68
2022/02/01 03:13:15;;;;;;;1.98;0.80;;;3.40;86.00;;;;;;4975815;28;20685;-68
2022/02/01 03:20:51;;;;;;;1.27;0.70;;;3.40;86.10;;;;;;4975836;28;20598;-67
2022/02/01 03:23:16;;;;;;;1.95;0.80;;;3.30;86.10;;;;;;4975797;28;20066;-67
2022/02/01 03:25:42;;;;;;;1.30;0.80;;;3.30;86.90;;;;;;4974710;28;20033;-67
2022/02/01 03:28:08;;;;;;;2.20;0.80;;;3.30;86.10;;;;;;4976650;28;20527;-69
2022/02/01 03:30:33;;;;;;;1.95;1.00;;;3.30;86.20;;;;;;4975350;28;20034;-67
2022/02/01 03:32:59;;;;;;;1.20;0.70;;;3.30;86.10;;;;;;4976700;28;20042;-66
2022/02/01 03:35:25;;;;;;;1.88;0.80;;;3.40;86.10;;;;;;4975742;28;20023;-67
2022/02/01 03:37:50;;;;;;;2.72;0.80;;;3.40;86.10;;;;;;4977341;28;20041;-67
2022/02/01 03:40:19;;;;;;;3.25;0.82;;;3.30;86.10;;;;;;4976521;28;20022;-67
2022/02/01 03:42:45;;;;;;;2.55;0.90;;;3.30;86.10;;;;;;4973394;28;20073;-67
2022/02/01 03:45:10;;;;;;;2.65;0.90;;;3.40;86.00;;;;;;4974548;28;20054;-68
2022/02/01 03:47:36;;;;;;;2.53;1.00;;;3.40;86.00;;;;;;4975819;28;20966;-68
2022/02/01 03:50:06;;;;;;;3.85;1.17;;;3.40;86.10;;;;;;4974203;28;20083;-68
2022/02/01 03:52:31;;;;;;;1.27;0.80;;;3.40;86.00;;;;;;4974806;28;20034;-69
2022/02/01 03:54:57;;;;;;;2.10;0.98;;;3.40;85.90;;;;;;4974829;28;20041;-68
2022/02/01 03:57:22;;;;;;;2.25;1.02;;;3.40;85.90;;;;;;4973248;28;20034;-68
2022/02/01 03:59:48;;;;;;;3.38;1.05;;;3.40;85.90;;;;;;4975814;28;20844;-67
2022/02/01 04:02:15;;;;;;;2.97;1.10;;;3.40;85.90;;;;;;4974208;28;20689;-67
2022/02/01 04:04:41;;;;;;;2.72;1.05;;;3.40;86.00;;;;;;4974066;28;20077;-68
2022/02/01 04:07:08;;;;;;;4.30;1.15;;;3.40;85.90;;;;;;4975073;28;20060;-67
2022/02/01 04:09:35;;;;;;;4.20;1.00;;;3.40;86.00;;;;;;4973592;28;20479;-67
2022/02/01 04:12:04;;;;;;;3.58;1.33;;;3.40;85.80;;;;;;4978335;28;20708;-67
2022/02/01 04:14:33;;;;;;;3.22;1.10;;;3.40;86.00;;;;;;4972351;28;20049;-67
2022/02/01 04:17:01;;;;;;;6.43;1.40;;;3.40;85.80;;;;;;4975955;28;20053;-68
2022/02/01 04:19:29;;;;;;;3.72;1.48;;;3.40;85.80;;;;;;4974535;28;20058;-68
2022/02/01 04:22:02;;;;;;;3.83;1.15;;;3.40;85.90;;;;;;4975469;28;20070;-68
2022/02/01 04:24:33;;;;;;;4.35;1.20;;;3.40;85.90;;;;;;4973893;28;20061;-66
2022/02/01 04:26:59;;;;;;;5.97;1.70;;;3.40;86.00;;;;;;4974647;28;20042;-68
2022/02/01 04:29:25;;;;;;;4.60;1.40;;;3.40;86.00;;;;;;4973264;28;20434;-68
2022/02/01 04:31:50;;;;;;;3.58;1.50;;;3.40;86.10;;;;;;4974754;28;20030;-68
2022/02/01 04:34:17;;;;;;;3.85;1.50;;;3.40;86.10;;;;;;4974953;28;20027;-67
2022/02/01 04:36:43;;;;;;;5.28;1.27;;;3.30;86.80;;;;;;4973932;28;20096;-67
2022/02/01 04:39:09;;;;;;;4.13;1.40;;;3.30;86.30;;;;;;4975240;28;20041;-66
2022/02/01 04:41:34;;;;;;;4.75;1.40;;;3.30;86.30;;;;;;4974097;28;20042;-67
2022/02/01 04:44:00;;;;;;;3.65;1.35;;;3.30;86.10;;;;;;4977776;28;20520;-67
2022/02/01 04:46:28;;;;;;;4.65;1.50;;;3.30;86.20;;;;;;4973785;28;20546;-69
2022/02/01 04:48:59;;;;;;;4.78;1.65;;;3.30;86.30;;;;;;4974139;28;20069;-67
2022/02/01 04:51:24;;;;;;;4.50;1.48;;;3.30;86.10;;;;;;4974101;28;20073;-68
2022/02/01 04:53:50;;;;;;;5.95;1.77;;;3.30;86.00;;;;;;4973429;28;20031;-67
2022/02/01 04:56:17;;;;;;;3.60;1.40;;;3.30;86.10;;;;;;4975794;28;20117;-67
2022/02/01 04:58:43;;;;;;;10.05;2.08;;;3.30;86.10;;;;;;4973920;28;20027;-67
2022/02/01 05:01:09;;;;;;;6.63;1.70;;;3.30;86.10;;;;;;4974999;28;20039;-67
2022/02/01 05:03:35;;;;;;;11.85;2.13;;;3.30;86.10;;;;;;4976732;28;20046;-68
2022/02/01 05:06:04;;;;;;;11.27;2.67;;;3.30;86.10;;;;;;4978607;28;20038;-67
2022/02/01 05:08:30;;;;;;;9.30;1.77;;;3.30;86.30;;;;;;4977815;28;20126;-68
2022/02/01 05:10:57;;;;;;;7.72;1.58;;;3.30;86.30;;;;;;4977509;28;20129;-68
2022/02/01 05:16:07;;;;;;;7.35;1.67;;;3.20;86.20;;;;;;4976939;28;20493;-68
2022/02/01 05:18:47;;;;;;;6.30;1.63;;;3.20;86.30;;;;;;4977667;28;20034;-67
2022/02/01 05:21:20;;;;;;;6.13;1.33;;;3.20;86.30;;;;;;4975704;28;20031;-69
2022/02/01 05:23:46;;;;;;;8.70;1.42;;;3.20;86.30;;;;;;4980141;28;20197;-69
2022/02/01 05:26:12;;;;;;;10.07;2.30;;;3.10;86.30;;;;;;4977723;28;20031;-68
2022/02/01 05:28:38;;;;;;;11.50;2.25;;;3.10;86.30;;;;;;4980879;28;20509;-68
2022/02/01 05:31:04;;;;;;;9.95;2.28;;;3.10;86.30;;;;;;4978442;28;20077;-67
2022/02/01 05:33:31;;;;;;;6.28;1.85;;;3.20;86.40;;;;;;4980065;28;20030;-68
2022/02/01 05:35:59;;;;;;;9.70;2.53;;;3.20;86.50;;;;;;4978265;28;20117;-67
2022/02/01 05:38:25;;;;;;;8.38;1.90;;;3.20;86.40;;;;;;4978316;28;20027;-67
2022/02/01 05:40:50;;;;;;;8.77;1.63;;;3.20;87.30;;;;;;4978678;28;20520;-68
2022/02/01 05:43:24;;;;;;;9.35;1.75;;;3.20;86.20;;;;;;4979793;28;20324;-66
2022/02/01 05:45:52;;;;;;;12.20;1.90;;;3.20;86.00;;;;;;4979217;28;20405;-68
2022/02/01 05:48:19;;;;;;;11.15;2.22;;;3.20;85.90;;;;;;4979689;28;20760;-67
2022/02/01 05:50:48;;;;;;;7.35;1.75;;;3.20;85.30;;;;;;4977653;28;20045;-69
2022/02/01 05:53:14;;;;;;;7.97;1.67;;;3.20;84.90;;;;;;4976010;28;20046;-66
2022/02/01 05:55:40;;;;;;;10.45;1.98;;;3.30;84.60;;;;;;4979086;28;20040;-67
2022/02/01 05:58:06;;;;;;;6.40;1.77;;;3.30;84.60;;;;;;4978184;28;20041;-66
2022/02/01 06:00:32;;;;;;;8.32;1.60;;;3.30;84.40;;;;;;4977200;28;20035;-67
2022/02/01 06:02:59;;;;;;;10.32;1.98;;;3.30;84.40;;;;;;4978704;28;20042;-67
2022/02/01 06:05:25;;;;;;;12.32;1.88;;;3.30;84.40;;;;;;4977774;28;20031;-66
2022/02/01 06:07:50;;;;;;;7.38;1.75;;;3.30;84.30;;;;;;4978908;28;20033;-67
2022/02/01 06:10:16;;;;;;;9.63;2.17;;;3.40;84.30;;;;;;4977404;28;20037;-67
2022/02/01 06:12:44;;;;;;;4.70;1.52;;;3.40;84.40;;;;;;4977427;28;20038;-67
2022/02/01 06:15:11;;;;;;;7.93;1.65;;;3.40;84.30;;;;;;4979461;28;20035;-68
2022/02/01 06:17:37;;;;;;;5.90;1.40;;;3.40;84.30;;;;;;4979011;28;20398;-67
2022/02/01 06:20:05;;;;;;;4.38;1.40;;;3.30;84.10;;;;;;4977601;28;20034;-67
2022/02/01 06:22:30;;;;;;;6.75;1.63;;;3.30;84.20;;;;;;4982283;28;20034;-66
2022/02/01 06:24:56;;;;;;;8.77;1.67;;;3.30;84.20;;;;;;4976956;28;20429;-67
2022/02/01 06:27:23;;;;;;;10.50;1.40;;;3.30;84.00;;;;;;4977483;28;20545;-67
2022/02/01 06:29:49;;;;;;;9.75;1.95;;;3.30;83.90;;;;;;4977455;28;20043;-68
2022/02/01 06:32:16;;;;;;;10.02;1.88;;;3.30;83.70;;;;;;4978044;28;20157;-67
2022/02/01 06:34:42;;;;;;;5.32;1.70;;;3.30;83.50;;;;;;4977185;28;20057;-68
2022/02/01 06:37:07;;;;;;;10.63;2.03;;;3.30;83.30;;;;;;4978626;28;20026;-68
2022/02/01 06:39:33;;;;;;;7.68;1.63;;;3.30;83.50;;;;;;4978205;28;20058;-68
2022/02/01 06:41:59;;;;;;;7.80;1.40;;;3.30;83.50;;;;;;4990809;28;20483;-68
2022/02/01 06:44:25;;;;;;;12.13;1.80;;;3.20;83.50;;;;;;4976282;28;20528;-68
2022/02/01 06:46:51;;;;;;;8.70;1.60;;;3.20;83.40;;;;;;4976134;28;20069;-68
2022/02/01 06:49:16;;;;;;;7.68;1.88;;;3.30;83.60;;;;;;4976713;28;20035;-68
2022/02/01 06:51:42;;;;;;;7.70;1.65;;;3.30;83.50;;;;;;4978410;28;20065;-67
2022/02/01 06:54:09;;;;;;;8.68;1.95;;;3.30;83.50;;;;;;4976577;28;20118;-68
2022/02/01 06:56:36;;;;;;;10.57;2.40;;;3.30;83.20;;;;;;4976489;28;20122;-67
2022/02/01 06:59:04;;;;;;;11.18;2.63;;;3.30;82.80;;;;;;4977236;28;20030;-68
2022/02/01 07:01:30;;;;;;;10.05;2.00;;;3.30;82.60;;;;;;4977089;28;20030;-67
2022/02/01 07:03:57;;;;;;;10.70;2.42;;;3.30;82.60;;;;;;4978226;28;20039;-68
2022/02/01 07:06:22;;;;;;;12.15;1.80;;;3.30;82.50;;;;;;4979113;28;20968;-66
2022/02/01 07:08:49;;;;;;;12.02;2.00;;;3.30;82.50;;;;;;4977136;28;20089;-66
2022/02/01 07:11:16;;;;;;;9.65;2.25;;;3.30;82.50;;;;;;4977260;28;20544;-67
2022/02/01 07:13:42;;;;;;;15.25;2.90;;;3.40;82.50;;;;;;4975707;28;20074;-67
2022/02/01 07:16:09;;;;;;;8.65;2.45;;;3.40;82.50;;;;;;4978948;28;20124;-68
2022/02/01 07:18:35;;;;;;;9.43;2.60;;;3.40;82.30;;;;;;4976241;28;20045;-67
2022/02/01 07:21:01;;;;;;;12.07;2.67;;;3.40;82.10;;;;;;4980648;28;20382;-69
2022/02/01 07:23:27;;;;;;;7.55;1.98;;;3.40;81.90;;;;;;4977830;28;20038;-67
2022/02/01 07:25:56;;;;;;;13.30;3.33;;;3.40;81.70;;;;;;4976705;28;20037;-68
2022/02/01 07:28:24;;;;;;;14.63;3.72;;;3.50;81.60;;;;;;4979934;28;20031;-66
2022/02/01 07:30:50;;;;;;;14.48;3.97;;;3.40;81.60;;;;;;4976797;28;20039;-67
2022/02/01 07:33:16;;;;;;;12.10;3.38;;;3.40;81.60;;;;;;4976065;28;20623;-65
2022/02/01 07:35:45;;;;;;;10.77;3.10;;;3.50;81.30;;;;;;4976252;28;20085;-68
2022/02/01 07:38:11;;;;;;;10.55;2.58;;;3.50;81.00;;;;;;4977973;28;20262;-66
2022/02/01 07:40:37;;;;;;;10.00;2.55;;;3.40;80.90;;;;;;4976222;28;20023;-67
2022/02/01 07:43:03;;;;;;;8.23;2.25;;;3.50;81.10;;;;;;4976199;28;20109;-67
2022/02/01 07:45:30;;;;;;;9.30;2.28;;;3.40;80.90;;;;;;4977983;28;20026;-67
2022/02/01 07:47:59;;;;;;;9.63;2.20;;;3.40;80.90;;;;;;4977577;28;20050;-68
2022/02/01 07:50:26;;;;;;;12.63;3.35;;;3.40;80.90;;;;;;4974160;28;20494;-67
2022/02/01 07:52:52;;;;;;;15.48;3.15;;;3.40;80.70;;;;;;4976916;28;20061;-68
2022/02/01 07:55:17;;;;;;;17.00;4.13;;;3.40;80.90;;;;;;4976454;28;20715;-67
2022/02/01 07:57:43;;;;;;;18.13;5.70;;;3.30;80.90;;;;;;4976564;28;20497;-67
2022/02/01 08:00:11;;;;;;;14.27;3.63;;;3.40;81.10;;;;;;4976218;28;20633;-67
2022/02/01 08:02:37;;;;;;;9.05;2.83;;;3.40;81.30;;;;;;4974396;28;20522;-67
2022/02/01 08:05:04;;;;;;;12.52;2.33;;;3.40;81.30;;;;;;4976597;28;20046;-66
2022/02/01 08:07:30;;;;;;;9.95;2.53;;;3.40;80.90;;;;;;4978275;28;20054;-68
2022/02/01 08:09:59;;;;;;;6.50;2.60;;;3.40;80.90;;;;;;4973712;28;20034;-67
2022/02/01 08:20:12;;;;;;;9.75;3.33;;;3.40;80.90;;;;;;4977282;28;20026;-66
2022/02/01 08:25:04;;;;;;;8.80;2.80;;;3.40;81.10;;;;;;4976525;28;20084;-67
2022/02/01 08:27:31;;;;;;;11.77;2.65;;;3.40;80.80;;;;;;4978299;28;20042;-68
2022/02/01 08:30:00;;;;;;;10.82;2.95;;;3.40;80.70;;;;;;4974567;28;20042;-67
2022/02/01 08:32:28;;;;;;;11.93;2.70;;;3.40;80.70;;;;;;4976075;28;20045;-67
2022/02/01 08:34:54;;;;;;;9.40;2.70;;;3.40;80.70;;;;;;4977637;28;20118;-67
2022/02/01 08:37:20;;;;;;;9.27;2.40;;;3.40;80.80;;;;;;4977978;28;20456;-66
2022/02/01 08:39:46;;;;;;;7.47;2.35;;;3.40;80.60;;;;;;4978628;28;20026;-67
2022/02/01 08:42:12;;;;;;;8.75;2.30;;;3.40;80.70;;;;;;4979269;28;20045;-69
2022/02/01 08:44:38;;;;;;;8.30;2.10;;;3.40;80.80;;;;;;4980024;28;20034;-69
2022/02/01 08:47:04;;;;;;;10.20;2.00;;;3.40;80.70;;;;;;4981022;28;20061;-67
2022/02/01 08:49:30;;;;;;;5.90;1.70;;;3.40;80.70;;;;;;4979740;28;20605;-67
2022/02/01 08:52:02;;;;;;;7.70;1.88;;;3.40;80.70;;;;;;4981018;28;20042;-67
2022/02/01 08:54:30;;;;;;;6.35;1.67;;;3.40;80.70;;;;;;4979944;28;20528;-67
2022/02/01 08:59:41;;;;;;;12.32;2.17;;;3.40;81.10;;;;;;4978351;28;20563;-69
2022/02/01 09:02:08;;;;;;;8.07;2.15;;;3.40;81.10;;;;;;4974230;28;20046;-67
2022/02/01 09:04:34;;;;;;;7.10;2.35;;;3.40;81.20;;;;;;4979003;28;20445;-67
2022/02/01 09:07:00;;;;;;;8.68;2.70;;;3.40;81.30;;;;;;4979482;28;20054;-69
2022/02/01 09:09:30;;;;;;;5.55;2.72;;;3.40;81.30;;;;;;4980965;28;20138;-65
2022/02/01 09:11:56;;;;;;;8.18;2.53;;;3.50;81.40;;;;;;4981392;28;20413;-67
2022/02/01 09:14:22;;;;;;;6.88;2.15;;;3.50;81.50;;;;;;4979692;28;20122;-68
2022/02/01 09:16:48;;;;;;;4.95;2.30;;;3.50;81.40;;;;;;4979486;28;20069;-68
2022/02/01 09:19:14;;;;;;;6.63;2.47;;;3.50;81.30;;;;;;4978088;28;20049;-66
2022/02/01 09:21:40;;;;;;;9.43;2.97;;;3.60;81.50;;;;;;4980127;28;20031;-68
2022/02/01 09:24:06;;;;;;;7.50;2.20;;;3.60;81.50;;;;;;4980958;28;20423;-70
2022/02/01 09:26:32;;;;;;;4.32;2.30;;;3.60;81.40;;;;;;4980117;28;20042;-68
2022/02/01 09:28:58;;;;;;;9.55;2.50;;;3.60;81.40;;;;;;4982408;28;20039;-68
2022/02/01 09:31:23;;;;;;;9.18;2.67;;;3.60;81.40;;;;;;4979115;28;20133;-69
2022/02/01 09:33:49;;;;;;;7.47;2.97;;;3.60;81.50;;;;;;4980079;28;20444;-68
2022/02/01 09:36:15;;;;;;;7.63;2.08;;;3.60;81.50;;;;;;4977711;28;20069;-67
2022/02/01 09:38:41;;;;;;;11.80;4.28;;;3.60;81.40;;;;;;4980275;28;20382;-68
2022/02/01 09:41:07;;;;;;;7.80;3.13;;;3.60;81.30;;;;;;4981411;28;20545;-67
2022/02/01 09:43:33;;;;;;;9.40;2.75;;;3.60;81.30;;;;;;4992727;28;20041;-67
2022/02/01 09:46:00;;;;;;;9.30;2.50;;;3.60;81.30;;;;;;4978357;28;20022;-66
2022/02/01 09:48:27;;;;;;;7.80;2.22;;;3.70;81.20;;;;;;4978048;28;20124;-67
2022/02/01 09:50:53;;;;;;;13.23;5.63;;;3.70;81.20;;;;;;4977516;28;20038;-67
2022/02/01 09:53:20;;;;;;;30.40;13.05;;;3.70;81.10;;;;;;4977925;28;20027;-68
2022/02/01 09:55:47;;;;;;;13.18;5.03;;;3.70;81.10;;;;;;4979959;28;20061;-67
2022/02/01 09:58:13;;;;;;;8.35;3.10;;;3.70;81.10;;;;;;4977373;28;20038;-67
2022/02/01 10:00:46;;;;;;;10.32;3.30;;;3.70;81.00;;;;;;4978737;28;20023;-68
2022/02/01 10:03:19;;;;;;;6.20;2.85;;;3.70;81.00;;;;;;4979682;28;20031;-68
2022/02/01 10:06:06;;;;;;;5.70;2.10;;;3.70;81.10;;;;;;4977240;28;20035;-70
2022/02/01 10:08:33;;;;;;;6.82;2.13;;;3.80;80.90;;;;;;4980133;28;20564;-68
2022/02/01 10:10:59;;;;;;;9.25;2.35;;;3.70;80.90;;;;;;4991702;28;20068;-68
2022/02/01 10:13:24;;;;;;;10.40;2.47;;;3.80;80.90;;;;;;4978452;28;20031;-68
2022/02/01 10:15:58;;;;;;;9.77;2.60;;;3.80;80.90;;;;;;4980129;28;20052;-66
2022/02/01 10:18:28;;;;;;;11.93;2.78;;;3.80;80.60;;;;;;4980716;28;20572;-67
2022/02/01 10:20:55;;;;;;;11.25;2.25;;;3.90;80.40;;;;;;4979673;28;20128;-67
2022/02/01 10:23:25;;;;;;;9.57;3.30;;;3.90;80.20;;;;;;4981025;28;20030;-67
2022/02/01 10:26:10;;;;;;;10.55;2.72;;;3.90;80.20;;;;;;4981074;28;20088;-67
2022/02/01 10:28:51;;;;;;;12.75;3.35;;;3.90;79.90;;;;;;4979600;28;20041;-66
2022/02/01 10:31:27;;;;;;;12.75;4.03;;;3.90;80.00;;;;;;4980497;28;20042;-68
2022/02/01 10:34:01;;;;;;;7.47;2.40;;;4.00;80.10;;;;;;4979000;28;20038;-66
2022/02/01 10:36:38;;;;;;;10.55;2.95;;;4.00;80.10;;;;;;4980321;28;20034;-67
2022/02/01 10:39:15;;;;;;;8.93;3.30;;;4.10;79.90;;;;;;4977324;28;20069;-69
2022/02/01 10:42:03;;;;;;;11.32;2.70;;;4.00;79.90;;;;;;4978268;28;20050;-67
2022/02/01 10:44:49;;;;;;;7.22;2.60;;;4.10;79.70;;;;;;4978835;28;20097;-67
2022/02/01 10:47:29;;;;;;;5.25;3.30;;;4.10;79.60;;;;;;4979727;28;20041;-67
2022/02/01 10:49:54;;;;;;;8.88;2.30;;;4.10;79.70;;;;;;4976559;28;20093;-66
2022/02/01 10:52:20;;;;;;;6.90;1.90;;;4.10;79.70;;;;;;4978464;28;20038;-66
2022/02/01 10:54:46;;;;;;;6.25;2.13;;;4.20;79.60;;;;;;4978172;28;20641;-67
2022/02/01 10:57:13;;;;;;;9.05;2.60;;;4.20;79.70;;;;;;4978199;28;20039;-67
2022/02/01 10:59:39;;;;;;;3.67;2.17;;;4.20;79.60;;;;;;4977655;28;20035;-68
2022/02/01 11:02:06;;;;;;;8.88;2.58;;;4.20;79.40;;;;;;4990957;28;20064;-67
2022/02/01 11:04:35;;;;;;;4.82;1.63;;;4.20;79.40;;;;;;4976735;28;20039;-68
2022/02/01 11:07:01;;;;;;;7.25;2.17;;;4.20;79.50;;;;;;4978626;28;20038;-67
2022/02/01 11:09:31;;;;;;;8.77;2.13;;;4.20;79.40;;;;;;4976228;28;20026;-67
2022/02/01 11:12:08;;;;;;;6.20;1.92;;;4.30;79.20;;;;;;4975298;28;21263;-68
2022/02/01 11:14:51;;;;;;;9.68;3.90;;;4.30;78.80;;;;;;4976646;28;20034;-67
2022/02/01 11:17:20;;;;;;;6.75;2.83;;;4.30;79.40;;;;;;4990342;28;20031;-67
2022/02/01 11:19:53;;;;;;;5.60;2.00;;;4.30;78.50;;;;;;4977915;28;20165;-70
2022/02/01 11:22:28;;;;;;;6.07;2.28;;;4.30;78.60;;;;;;4979612;28;20038;-68
2022/02/01 11:25:00;;;;;;;5.00;1.92;;;4.30;79.30;;;;;;4978392;28;20497;-67
2022/02/01 11:27:38;;;;;;;9.20;2.22;;;4.40;78.30;;;;;;4977834;28;20046;-67
2022/02/01 11:30:11;;;;;;;6.13;1.80;;;4.40;78.00;;;;;;4978398;28;20192;-68
2022/02/01 11:32:40;;;;;;;6.72;2.40;;;4.30;78.00;;;;;;4981799;28;20031;-67
2022/02/01 11:35:09;;;;;;;5.97;2.20;;;4.30;78.00;;;;;;4978426;28;20062;-67
2022/02/01 11:37:48;;;;;;;6.65;2.47;;;4.30;77.90;;;;;;4977386;28;20039;-69
2022/02/01 11:40:16;;;;;;;6.63;2.53;;;4.30;77.90;;;;;;4992330;28;20031;-67
2022/02/01 11:42:51;;;;;;;10.13;2.15;;;4.30;78.10;;;;;;4975060;28;20080;-67
2022/02/01 11:45:26;;;;;;;6.63;2.08;;;4.30;78.10;;;;;;4975630;28;20050;-67
2022/02/01 11:47:52;;;;;;;6.80;1.98;;;4.30;78.10;;;;;;4978077;28;20034;-68
2022/02/01 11:50:20;;;;;;;6.03;2.17;;;4.30;78.00;;;;;;4976489;28;20038;-68
2022/02/01 11:52:48;;;;;;;5.95;2.22;;;4.30;77.90;;;;;;4975769;28;20101;-68
2022/02/01 11:55:16;;;;;;;4.72;2.03;;;4.20;77.60;;;;;;4976135;28;20418;-68
2022/02/01 11:57:48;;;;;;;9.63;2.08;;;4.20;77.80;;;;;;4977537;28;20031;-68
2022/02/01 12:00:25;;;;;;;6.75;2.70;;;4.30;77.60;;;;;;4976133;28;20064;-68
2022/02/01 12:02:53;;;;;;;6.20;2.15;;;4.30;77.60;;;;;;4978325;28;20114;-68
2022/02/01 12:05:27;;;;;;;5.25;2.00;;;4.30;77.80;;;;;;4976719;28;20035;-67
2022/02/01 12:08:15;;;;;;;6.47;2.33;;;4.30;77.70;;;;;;4977495;28;20038;-67
2022/02/01 12:10:45;;;;;;;9.35;2.78;;;4.30;77.30;;;;;;4985847;28;20051;-68
2022/02/01 12:13:14;;;;;;;14.82;5.68;;;4.30;77.20;;;;;;4976946;28;20038;-68
2022/02/01 12:15:42;;;;;;;7.80;3.45;;;4.30;77.40;;;;;;4977724;28;20075;-67
2022/02/01 12:18:33;;;;;;;6.72;2.80;;;4.30;77.40;;;;;;4979513;28;20092;-67
2022/02/01 12:21:05;;;;;;;7.80;3.30;;;4.30;77.00;;;;;;4976059;28;20038;-68
2022/02/01 12:23:31;;;;;;;8.15;2.80;;;4.30;77.30;;;;;;4976829;28;20066;-67
2022/02/01 12:25:57;;;;;;;8.98;4.43;;;4.30;77.40;;;;;;4978285;28;20035;-68
2022/02/01 12:28:27;;;;;;;13.10;6.35;;;4.30;77.60;;;;;;4977883;28;20045;-67
2022/02/01 12:31:10;;;;;;;26.90;10.27;;;4.40;77.40;;;;;;4976032;28;20038;-68
2022/02/01 12:33:44;;;;;;;24.83;9.38;;;4.40;77.50;;;;;;4976531;28;20046;-68
2022/02/01 12:36:11;;;;;;;11.75;4.90;;;4.40;77.40;;;;;;4977169;28;20433;-67
2022/02/01 12:38:38;;;;;;;17.33;6.38;;;4.40;77.20;;;;;;4974409;28;20466;-68
2022/02/01 12:41:16;;;;;;;15.38;6.45;;;4.40;77.00;;;;;;4990770;28;20049;-68
2022/02/01 12:46:42;;;;;;;15.30;5.57;;;4.40;76.30;;;;;;4975647;28;20117;-68
2022/02/01 12:49:08;;;;;;;9.18;3.55;;;4.30;76.50;;;;;;4976503;28;20077;-68
2022/02/01 12:51:49;;;;;;;7.18;2.65;;;4.30;76.50;;;;;;4977981;28;20560;-68
2022/02/01 12:54:38;;;;;;;9.30;2.92;;;4.30;76.20;;;;;;4975332;28;20029;-68
2022/02/01 12:57:18;;;;;;;5.32;2.33;;;4.20;76.30;;;;;;4976958;28;20089;-68
2022/02/01 12:59:48;;;;;;;9.93;2.75;;;4.20;76.20;;;;;;4979590;28;20035;-68
2022/02/01 13:02:16;;;;;;;11.38;3.85;;;4.20;76.20;;;;;;4977867;28;20054;-67
2022/02/01 13:04:42;;;;;;;7.63;2.42;;;4.10;76.20;;;;;;4976961;28;20461;-69
2022/02/01 13:07:19;;;;;;;10.00;2.78;;;4.10;76.40;;;;;;4978209;28;20038;-69
2022/02/01 13:15:26;;;;;;;9.85;3.30;;;4.00;76.60;;;;;;4976408;28;20094;-68
2022/02/01 13:18:11;;;;;;;7.60;3.40;;;4.00;76.60;;;;;;4978050;28;20081;-68
2022/02/01 13:20:40;;;;;;;9.10;3.10;;;4.00;76.60;;;;;;4975456;28;20545;-68
2022/02/01 13:23:06;;;;;;;11.65;3.13;;;4.00;76.40;;;;;;4978834;28;20060;-68
2022/02/01 13:25:46;;;;;;;10.27;2.97;;;4.00;76.50;;;;;;4979303;28;20039;-68
2022/02/01 13:28:15;;;;;;;9.77;3.35;;;4.00;76.60;;;;;;4981752;28;20413;-68
2022/02/01 13:30:45;;;;;;;12.98;4.78;;;4.00;76.50;;;;;;4979585;28;20606;-69
2022/02/01 13:33:15;;;;;;;12.55;4.43;;;4.00;76.60;;;;;;4980425;28;20984;-69
2022/02/01 13:35:55;;;;;;;19.85;5.63;;;3.90;76.20;;;;;;4980059;28;20043;-69
2022/02/01 13:38:25;;;;;;;13.40;6.03;;;3.90;76.10;;;;;;4979426;28;20038;-69
2022/02/01 13:40:52;;;;;;;8.35;2.60;;;3.90;76.40;;;;;;4976713;28;20501;-69
2022/02/01 13:43:25;;;;;;;10.48;3.90;;;3.90;76.20;;;;;;4980826;28;20496;-69
2022/02/01 13:45:53;;;;;;;14.27;4.30;;;3.90;76.80;;;;;;4981001;28;20468;-68
2022/02/01 13:48:28;;;;;;;13.10;4.80;;;3.90;76.10;;;;;;4980511;28;20521;-69
2022/02/01 13:51:04;;;;;;;14.73;5.55;;;3.80;75.80;;;;;;4978774;28;20080;-68
2022/02/01 13:53:31;;;;;;;7.75;2.78;;;3.90;75.90;;;;;;4976856;28;20038;-68
2022/02/01 13:56:05;;;;;;;8.70;3.78;;;3.90;75.90;;;;;;4979182;28;20037;-68
2022/02/01 13:58:36;;;;;;;10.48;4.65;;;3.90;76.00;;;;;;4977053;28;21847;-68
2022/02/01 14:01:13;;;;;;;17.88;4.78;;;3.80;75.80;;;;;;4976926;28;20023;-68
2022/02/01 14:03:44;;;;;;;11.43;3.20;;;3.80;76.10;;;;;;4978937;28;20037;-70
2022/02/01 14:11:55;;;;;;;5.97;2.47;;;3.90;76.30;;;;;;4981325;28;20501;-68
2022/02/01 14:34:50;;;;;;;13.57;4.95;;;3.90;76.00;;;;;;4977846;28;20030;-68
2022/02/01 14:37:22;;;;;;;9.48;3.78;;;3.90;76.20;;;;;;4981793;28;20049;-68
2022/02/01 14:45:07;;;;;;;5.60;1.40;;;3.80;76.30;;;;;;4976948;28;20197;-67
2022/02/01 14:47:33;;;;;;;6.55;1.40;;;3.80;76.50;;;;;;4977010;28;20545;-69
2022/02/01 14:49:59;;;;;;;4.15;1.65;;;3.80;76.70;;;;;;4976503;28;20043;-70
2022/02/01 14:52:25;;;;;;;2.78;1.10;;;3.80;76.80;;;;;;4977884;28;20583;-69
2022/02/01 14:54:56;;;;;;;6.47;1.50;;;3.70;76.70;;;;;;4981093;28;20031;-68
2022/02/01 15:13:30;;;;;;;6.78;1.90;;;3.50;77.60;;;;;;4978496;28;20053;-68
2022/02/01 15:15:56;;;;;;;7.30;3.40;;;3.50;77.90;;;;;;4979132;28;20548;-68
2022/02/01 15:18:22;;;;;;;6.75;2.80;;;3.50;78.10;;;;;;4983889;28;20046;-68
2022/02/01 15:20:47;;;;;;;4.60;1.98;;;3.40;78.30;;;;;;4977311;28;20522;-69
2022/02/01 15:23:13;;;;;;;7.22;2.70;;;3.40;78.50;;;;;;4978874;28;20074;-68
2022/02/01 15:25:39;;;;;;;6.43;2.40;;;3.30;78.40;;;;;;4978115;28;20049;-68
2022/02/01 15:28:04;;;;;;;4.00;1.52;;;3.40;78.70;;;;;;4978287;28;20038;-68
2022/02/01 15:30:32;;;;;;;4.75;1.25;;;3.30;78.90;;;;;;4976130;28;20170;-69
2022/02/01 15:32:59;;;;;;;4.18;1.52;;;3.30;79.00;;;;;;4976235;28;20042;-68